Time;durP1;ratioP1;P1;durP2;ratioP2;P2;SDS_P1;SDS_P2;PMS_P1;PMS_P2;Temp;Humidity;BMP_temperature;BMP_pressure;BME280_temperature;BME280_humidity;BME280_pressure;Samples;Min_cycle;Max_cycle;Signal;HPM_P1;HPM_P2
2021/12/20 00:00:09;;;;;;;15.82;9.27;;;3.70;90.10;;;;;;5005223;28;20216;-81
2021/12/20 00:02:37;;;;;;;15.88;9.73;;;3.70;90.00;;;;;;5003599;28;20644;-80
2021/12/20 00:05:05;;;;;;;12.60;8.48;;;3.70;90.20;;;;;;5002859;28;20680;-82
2021/12/20 00:07:32;;;;;;;12.57;8.63;;;3.70;90.30;;;;;;5004982;28;20209;-81
2021/12/20 00:09:59;;;;;;;14.80;9.32;;;3.70;90.00;;;;;;5004896;28;20207;-81
2021/12/20 00:12:27;;;;;;;14.43;8.95;;;3.70;90.10;;;;;;5011647;28;20201;-80
2021/12/20 00:14:54;;;;;;;11.05;8.35;;;3.70;90.20;;;;;;5017770;28;20213;-80
2021/12/20 00:17:21;;;;;;;14.75;9.20;;;3.70;90.10;;;;;;5066958;22;20223;-78
2021/12/20 00:19:48;;;;;;;11.85;8.10;;;3.70;90.10;;;;;;5056447;28;20207;-78
2021/12/20 00:22:15;;;;;;;15.68;9.35;;;3.80;90.20;;;;;;5056596;28;20250;-77
2021/12/20 00:24:43;;;;;;;13.23;8.80;;;3.70;90.00;;;;;;5045577;28;20207;-77
2021/12/20 00:27:12;;;;;;;14.13;8.68;;;3.80;90.10;;;;;;5036223;28;20247;-78
2021/12/20 00:29:40;;;;;;;12.63;8.77;;;3.90;89.80;;;;;;5027351;28;20207;-77
2021/12/20 00:32:08;;;;;;;17.67;9.77;;;3.80;88.60;;;;;;5025485;28;20204;-79
2021/12/20 00:34:36;;;;;;;15.10;9.23;;;3.80;89.00;;;;;;5028417;28;20295;-79
2021/12/20 00:40:20;;;;;;;13.80;9.05;;;3.80;88.70;;;;;;5028533;28;20228;-78
2021/12/20 00:42:38;;;;;;;13.75;9.05;;;3.70;89.70;;;;;;5027084;28;20258;-77
2021/12/20 00:45:08;;;;;;;18.10;10.50;;;3.60;89.80;;;;;;5026375;28;20279;-78
2021/12/20 00:47:35;;;;;;;13.80;9.52;;;3.60;90.10;;;;;;5034388;28;20279;-77
2021/12/20 00:50:02;;;;;;;15.63;9.57;;;3.50;90.40;;;;;;5033922;28;20223;-78
2021/12/20 00:52:29;;;;;;;17.23;9.63;;;3.50;91.00;;;;;;5031525;28;20216;-77
2021/12/20 00:54:56;;;;;;;19.17;10.88;;;3.60;91.10;;;;;;5021827;28;20246;-77
2021/12/20 00:57:23;;;;;;;16.10;10.43;;;3.60;91.30;;;;;;5028065;28;20234;-78
2021/12/20 00:59:50;;;;;;;15.18;9.88;;;3.60;91.30;;;;;;5028491;28;20284;-78
2021/12/20 01:02:34;;;;;;;16.63;9.90;;;3.50;91.80;;;;;;5031335;28;20208;-79
2021/12/20 01:05:01;;;;;;;13.30;8.80;;;3.60;91.80;;;;;;5033486;28;20215;-78
2021/12/20 01:07:34;;;;;;;16.80;10.23;;;3.60;91.70;;;;;;5032278;28;20223;-78
2021/12/20 01:10:05;;;;;;;16.23;9.50;;;3.60;91.60;;;;;;5027688;28;20210;-78
2021/12/20 01:12:43;;;;;;;19.80;10.88;;;3.50;91.50;;;;;;5027687;28;20383;-77
2021/12/20 01:17:55;;;;;;;15.43;10.30;;;3.40;92.30;;;;;;5026377;28;20246;-78
2021/12/20 01:20:22;;;;;;;18.27;11.10;;;3.40;92.60;;;;;;5028646;28;20234;-79
2021/12/20 01:22:52;;;;;;;16.35;10.35;;;3.40;92.80;;;;;;5024063;28;20262;-78
2021/12/20 01:25:19;;;;;;;20.58;11.27;;;3.50;92.80;;;;;;5024813;28;20207;-78
2021/12/20 01:27:49;;;;;;;19.73;10.80;;;3.50;93.00;;;;;;5030900;28;20223;-77
2021/12/20 01:30:18;;;;;;;22.55;12.35;;;3.50;93.20;;;;;;5031646;28;20208;-77
2021/12/20 01:32:46;;;;;;;17.00;10.63;;;3.50;93.20;;;;;;5022876;28;20283;-76
2021/12/20 01:35:17;;;;;;;17.90;10.60;;;3.50;93.30;;;;;;5026587;28;20199;-78
2021/12/20 01:37:44;;;;;;;23.85;12.90;;;3.60;93.40;;;;;;5028971;28;20590;-78
2021/12/20 01:40:14;;;;;;;17.75;11.18;;;3.60;93.10;;;;;;5025768;28;20271;-78
2021/12/20 01:42:42;;;;;;;19.35;12.20;;;3.50;92.90;;;;;;5029904;28;20224;-79
2021/12/20 01:45:23;;;;;;;19.05;11.15;;;3.50;93.40;;;;;;5026886;28;20212;-77
2021/12/20 01:48:16;;;;;;;18.95;11.45;;;3.50;93.40;;;;;;5026675;28;20307;-77
2021/12/20 01:53:31;;;;;;;20.20;11.07;;;3.60;93.70;;;;;;5024911;28;20281;-78
2021/12/20 01:55:58;;;;;;;21.50;12.02;;;3.60;93.70;;;;;;5020759;28;20623;-78
2021/12/20 01:58:27;;;;;;;19.88;11.88;;;3.50;94.00;;;;;;5025803;28;20278;-79
2021/12/20 02:03:48;;;;;;;24.83;12.65;;;3.50;94.50;;;;;;5014773;28;20219;-78
2021/12/20 02:06:29;;;;;;;22.75;10.98;;;3.50;94.60;;;;;;5025280;28;20266;-78
2021/12/20 02:08:57;;;;;;;25.52;12.82;;;3.50;94.60;;;;;;5027985;28;20294;-79
2021/12/20 02:11:24;;;;;;;26.83;12.40;;;3.50;94.60;;;;;;5026023;28;20196;-78
2021/12/20 02:13:51;;;;;;;25.02;13.48;;;3.50;94.70;;;;;;5026049;28;20273;-78
2021/12/20 02:16:19;;;;;;;20.85;12.85;;;3.60;94.70;;;;;;5025966;28;20243;-78
2021/12/20 02:18:45;;;;;;;23.70;13.05;;;3.50;94.60;;;;;;5022944;28;20208;-78
2021/12/20 02:21:14;;;;;;;24.90;12.98;;;3.50;94.80;;;;;;5026188;28;20302;-79
2021/12/20 02:23:41;;;;;;;24.98;12.00;;;3.50;95.20;;;;;;5023855;28;20227;-78
2021/12/20 02:26:11;;;;;;;23.92;12.50;;;3.50;95.70;;;;;;5028727;28;20231;-79
2021/12/20 02:28:41;;;;;;;26.80;12.88;;;3.50;95.50;;;;;;5027919;28;20210;-78
2021/12/20 02:39:36;;;;;;;24.35;11.68;;;3.60;96.30;;;;;;5008233;28;20229;-78
2021/12/20 02:42:03;;;;;;;26.30;13.43;;;3.60;95.50;;;;;;5032056;28;20302;-77
2021/12/20 02:44:30;;;;;;;22.75;12.55;;;3.60;95.80;;;;;;5032702;28;20607;-77
2021/12/20 02:47:08;;;;;;;26.85;13.63;;;3.60;95.60;;;;;;5032888;28;20231;-78
2021/12/20 02:49:35;;;;;;;23.13;12.38;;;3.50;95.30;;;;;;5034518;28;20179;-77
2021/12/20 02:52:07;;;;;;;27.05;13.13;;;3.60;95.50;;;;;;5035504;28;20214;-78
2021/12/20 02:54:35;;;;;;;20.83;12.27;;;3.60;95.40;;;;;;5035415;28;20243;-77
2021/12/20 02:57:02;;;;;;;21.42;11.23;;;3.60;95.30;;;;;;5035589;28;20223;-77
2021/12/20 02:59:29;;;;;;;25.67;13.05;;;3.50;95.20;;;;;;5035327;28;20207;-77
2021/12/20 03:01:59;;;;;;;26.35;13.15;;;3.60;95.50;;;;;;5031469;28;20207;-78
2021/12/20 03:04:27;;;;;;;21.40;12.55;;;3.60;95.20;;;;;;5027836;28;20251;-78
2021/12/20 03:06:56;;;;;;;21.77;12.30;;;3.60;95.10;;;;;;5020819;28;20224;-78
2021/12/20 03:09:29;;;;;;;26.25;11.90;;;3.50;94.90;;;;;;5021141;28;20628;-78
2021/12/20 03:11:59;;;;;;;24.33;12.30;;;3.50;95.40;;;;;;5024191;28;20216;-77
2021/12/20 03:14:29;;;;;;;24.35;12.98;;;3.60;95.60;;;;;;5024841;28;20235;-78
2021/12/20 03:16:57;;;;;;;24.13;12.90;;;3.60;95.30;;;;;;5030600;28;20246;-78
2021/12/20 03:19:23;;;;;;;22.08;11.88;;;3.50;95.10;;;;;;5028465;28;20239;-79
2021/12/20 03:21:51;;;;;;;25.65;12.93;;;3.60;95.50;;;;;;5026690;28;20208;-78
2021/12/20 03:24:19;;;;;;;26.75;14.35;;;3.60;95.00;;;;;;5031310;28;20232;-78
2021/12/20 03:27:03;;;;;;;27.42;14.02;;;3.50;95.10;;;;;;5032247;28;20218;-78
2021/12/20 03:29:43;;;;;;;26.35;13.77;;;3.50;95.00;;;;;;5034742;28;20322;-78
2021/12/20 03:32:11;;;;;;;24.30;12.65;;;3.40;95.20;;;;;;5033076;28;20270;-78
2021/12/20 03:35:03;;;;;;;27.45;12.93;;;3.40;95.80;;;;;;5034629;28;20203;-78
2021/12/20 03:37:30;;;;;;;29.15;14.02;;;3.40;96.20;;;;;;5032102;28;20330;-78
2021/12/20 03:39:57;;;;;;;29.20;16.63;;;3.40;96.20;;;;;;5030487;28;20271;-77
2021/12/20 03:42:27;;;;;;;27.35;14.80;;;3.40;95.70;;;;;;5038350;28;20195;-77
2021/12/20 03:44:54;;;;;;;33.72;14.25;;;3.30;95.60;;;;;;5038374;28;20216;-77
2021/12/20 03:47:21;;;;;;;34.33;16.08;;;3.30;95.60;;;;;;5038521;28;20223;-77
2021/12/20 03:49:48;;;;;;;35.05;14.90;;;3.30;95.80;;;;;;5036608;28;20267;-78
2021/12/20 03:52:15;;;;;;;29.90;14.63;;;3.40;96.10;;;;;;5032989;28;20218;-78
2021/12/20 03:54:42;;;;;;;26.95;13.82;;;3.40;95.80;;;;;;5033945;28;20219;-77
2021/12/20 03:57:09;;;;;;;26.60;13.63;;;3.40;95.50;;;;;;5025021;28;20258;-77
2021/12/20 03:59:37;;;;;;;31.17;15.20;;;3.40;95.30;;;;;;5026290;28;20630;-79
2021/12/20 04:02:05;;;;;;;34.33;14.98;;;3.40;95.00;;;;;;5023490;28;20211;-78
2021/12/20 04:04:32;;;;;;;31.08;14.38;;;3.40;94.60;;;;;;5023901;28;20255;-77
2021/12/20 04:06:59;;;;;;;31.50;15.52;;;3.40;94.70;;;;;;5028889;28;20297;-78
2021/12/20 04:09:26;;;;;;;30.55;15.43;;;3.40;94.60;;;;;;5037613;28;20307;-78
2021/12/20 04:11:53;;;;;;;26.08;14.57;;;3.30;94.50;;;;;;5037272;28;20188;-78
2021/12/20 04:14:20;;;;;;;30.50;15.02;;;3.30;94.60;;;;;;5037324;28;20192;-78
2021/12/20 04:16:48;;;;;;;32.03;15.48;;;3.30;94.70;;;;;;5037066;28;20231;-78
2021/12/20 04:19:15;;;;;;;28.05;14.35;;;3.30;95.20;;;;;;5030081;28;20220;-78
2021/12/20 04:21:42;;;;;;;31.23;14.38;;;3.30;95.00;;;;;;5027384;28;20267;-78
2021/12/20 04:24:09;;;;;;;28.20;16.55;;;3.40;95.30;;;;;;5019446;28;20255;-78
2021/12/20 04:26:36;;;;;;;27.58;14.25;;;3.40;95.00;;;;;;5021349;28;20315;-77
2021/12/20 04:29:03;;;;;;;27.35;13.70;;;3.30;94.60;;;;;;5026114;28;20390;-78
2021/12/20 04:31:31;;;;;;;27.80;14.95;;;3.40;94.50;;;;;;5028554;28;20216;-78
2021/12/20 04:33:59;;;;;;;26.35;13.05;;;3.30;94.50;;;;;;5029811;28;20258;-78
2021/12/20 04:36:26;;;;;;;30.10;15.50;;;3.30;94.50;;;;;;5031157;28;20266;-78
2021/12/20 04:38:53;;;;;;;29.20;13.88;;;3.30;94.40;;;;;;5024839;28;20637;-78
2021/12/20 04:41:20;;;;;;;24.88;13.15;;;3.30;94.50;;;;;;5025891;28;20216;-78
2021/12/20 04:43:47;;;;;;;29.55;14.77;;;3.30;94.50;;;;;;5023552;28;20231;-78
2021/12/20 04:46:14;;;;;;;27.35;13.85;;;3.30;94.50;;;;;;5026939;28;20291;-78
2021/12/20 04:48:41;;;;;;;28.42;14.00;;;3.40;94.50;;;;;;5025328;28;20211;-78
2021/12/20 04:51:12;;;;;;;26.02;13.45;;;3.30;93.60;;;;;;5007926;28;20193;-77
2021/12/20 04:53:39;;;;;;;28.73;13.98;;;3.30;93.80;;;;;;5009924;28;20199;-78
2021/12/20 04:56:06;;;;;;;31.70;14.75;;;3.20;94.40;;;;;;5016232;28;20321;-78
2021/12/20 04:58:33;;;;;;;27.63;15.52;;;3.20;94.60;;;;;;5010322;28;20223;-77
2021/12/20 05:01:00;;;;;;;25.20;13.55;;;3.20;94.60;;;;;;5005647;28;20240;-78
2021/12/20 05:03:27;;;;;;;29.63;15.23;;;3.20;94.90;;;;;;5010962;28;20228;-78
2021/12/20 05:05:54;;;;;;;24.38;13.30;;;3.30;95.00;;;;;;5017163;28;20219;-77
2021/12/20 05:08:22;;;;;;;24.52;13.75;;;3.30;94.60;;;;;;5017506;28;20193;-77
2021/12/20 05:10:49;;;;;;;27.75;13.82;;;3.30;94.60;;;;;;5009548;28;20208;-77
2021/12/20 05:13:16;;;;;;;27.13;12.60;;;3.30;94.80;;;;;;5004095;28;20296;-78
2021/12/20 05:15:43;;;;;;;29.10;16.00;;;3.30;94.60;;;;;;5002558;28;20236;-78
2021/12/20 05:18:11;;;;;;;31.02;15.25;;;3.30;94.50;;;;;;5001780;28;20657;-77
2021/12/20 05:20:38;;;;;;;28.27;14.25;;;3.30;94.50;;;;;;5002319;28;20411;-78
2021/12/20 05:23:07;;;;;;;32.10;14.70;;;3.40;94.50;;;;;;5009932;28;20212;-79
2021/12/20 05:25:36;;;;;;;27.08;14.02;;;3.40;94.40;;;;;;5008448;28;20220;-78
2021/12/20 05:28:04;;;;;;;30.15;14.88;;;3.30;93.90;;;;;;5004915;28;20280;-79
2021/12/20 05:30:31;;;;;;;28.02;15.25;;;3.30;93.90;;;;;;5010299;28;20224;-77
2021/12/20 05:32:58;;;;;;;27.98;14.18;;;3.30;94.00;;;;;;5028855;28;20191;-79
2021/12/20 05:35:25;;;;;;;28.00;15.40;;;3.30;93.60;;;;;;5032397;28;20184;-77
2021/12/20 05:37:52;;;;;;;26.48;13.90;;;3.30;93.60;;;;;;5024166;28;20224;-77
2021/12/20 05:40:20;;;;;;;29.42;13.95;;;3.30;93.40;;;;;;5024470;28;20238;-76
2021/12/20 05:42:48;;;;;;;24.15;13.18;;;3.30;93.60;;;;;;5025960;28;20223;-77
2021/12/20 05:45:16;;;;;;;28.50;14.40;;;3.30;93.10;;;;;;5024533;28;20278;-77
2021/12/20 05:47:43;;;;;;;27.25;14.88;;;3.30;93.00;;;;;;5024695;28;20219;-77
2021/12/20 05:50:12;;;;;;;27.55;14.05;;;3.30;93.30;;;;;;5028216;28;20208;-80
2021/12/20 05:52:39;;;;;;;25.92;14.52;;;3.30;93.00;;;;;;5015176;28;20612;-78
2021/12/20 05:55:08;;;;;;;29.13;15.65;;;3.30;93.70;;;;;;4998115;28;20645;-77
2021/12/20 05:57:35;;;;;;;26.10;13.68;;;3.30;93.40;;;;;;5001009;28;20248;-77
2021/12/20 06:00:08;;;;;;;29.67;15.07;;;3.30;93.50;;;;;;5018599;28;20280;-77
2021/12/20 06:02:35;;;;;;;32.35;15.70;;;3.30;93.40;;;;;;5019667;28;20235;-76
2021/12/20 06:05:02;;;;;;;31.25;15.07;;;3.30;93.20;;;;;;5000101;28;20224;-77
2021/12/20 06:07:29;;;;;;;31.67;16.00;;;3.40;93.50;;;;;;5000885;28;20235;-77
2021/12/20 06:09:56;;;;;;;26.00;14.00;;;3.30;93.20;;;;;;5000102;28;20213;-77
2021/12/20 06:12:23;;;;;;;32.15;14.02;;;3.30;93.20;;;;;;4998816;28;20271;-77
2021/12/20 06:14:50;;;;;;;29.42;15.52;;;3.30;92.90;;;;;;4995455;28;20209;-77
2021/12/20 06:17:19;;;;;;;26.08;14.60;;;3.30;93.10;;;;;;5051232;22;20238;-78
2021/12/20 06:19:46;;;;;;;25.02;14.25;;;3.30;93.50;;;;;;5040927;28;20230;-81
2021/12/20 06:22:13;;;;;;;30.85;16.20;;;3.40;93.50;;;;;;5022391;28;20259;-81
2021/12/20 06:24:40;;;;;;;30.63;15.50;;;3.40;93.10;;;;;;5031391;28;20224;-82
2021/12/20 06:27:07;;;;;;;31.17;15.02;;;3.30;93.20;;;;;;5011100;28;20228;-82
2021/12/20 06:29:35;;;;;;;30.92;14.75;;;3.30;93.10;;;;;;5009652;28;20219;-79
2021/12/20 06:32:02;;;;;;;29.80;14.48;;;3.30;93.20;;;;;;4999815;28;20208;-80
2021/12/20 06:34:31;;;;;;;29.85;15.63;;;3.20;93.30;;;;;;5012531;28;20267;-83
2021/12/20 06:36:58;;;;;;;29.10;13.90;;;3.20;93.90;;;;;;5019075;28;20274;-80
2021/12/20 06:39:25;;;;;;;24.25;14.52;;;3.30;94.00;;;;;;5020038;28;20216;-80
2021/12/20 06:41:52;;;;;;;29.83;14.80;;;3.30;94.10;;;;;;5023219;28;20690;-81
2021/12/20 06:44:19;;;;;;;31.52;13.35;;;3.40;93.70;;;;;;5027101;28;20224;-80
2021/12/20 06:46:46;;;;;;;27.45;14.05;;;3.40;93.60;;;;;;5032467;28;20281;-82
2021/12/20 06:49:13;;;;;;;27.55;14.48;;;3.40;93.20;;;;;;5027148;28;20256;-80
2021/12/20 06:51:44;;;;;;;25.55;14.20;;;3.40;93.40;;;;;;5029796;28;20744;-82
2021/12/20 06:54:12;;;;;;;30.00;14.60;;;3.40;93.20;;;;;;5027460;28;20188;-81
2021/12/20 06:56:40;;;;;;;27.50;15.30;;;3.40;93.10;;;;;;5031124;28;20224;-84
2021/12/20 06:59:07;;;;;;;29.20;16.33;;;3.40;92.90;;;;;;5027141;28;20211;-81
2021/12/20 07:01:35;;;;;;;26.55;14.95;;;3.40;92.90;;;;;;5026340;28;20234;-82
2021/12/20 07:04:02;;;;;;;27.30;15.32;;;3.40;92.80;;;;;;5024679;28;20287;-83
2021/12/20 07:06:30;;;;;;;28.05;15.13;;;3.40;92.90;;;;;;5025084;28;20234;-82
2021/12/20 07:08:58;;;;;;;29.92;14.98;;;3.40;93.00;;;;;;5024900;28;20212;-81
2021/12/20 07:11:25;;;;;;;24.35;14.30;;;3.40;93.10;;;;;;5023896;28;20667;-82
2021/12/20 07:13:58;;;;;;;28.80;14.55;;;3.40;93.30;;;;;;5028734;28;20223;-83
2021/12/20 07:16:25;;;;;;;25.35;13.65;;;3.50;93.50;;;;;;5032521;28;20243;-82
2021/12/20 07:18:51;;;;;;;26.77;15.32;;;3.50;92.80;;;;;;5030726;28;20753;-83
2021/12/20 07:21:19;;;;;;;31.98;16.52;;;3.50;93.10;;;;;;5031185;28;20204;-82
2021/12/20 07:23:46;;;;;;;31.05;15.98;;;3.50;92.90;;;;;;5031365;28;20216;-82
2021/12/20 07:26:14;;;;;;;27.83;15.70;;;3.50;93.10;;;;;;5033357;28;20296;-82
2021/12/20 07:28:42;;;;;;;27.90;15.63;;;3.50;92.80;;;;;;5032408;28;20232;-83
2021/12/20 07:31:10;;;;;;;28.08;13.95;;;3.60;92.90;;;;;;5032650;28;20214;-82
2021/12/20 07:33:38;;;;;;;27.20;15.60;;;3.70;92.80;;;;;;5032405;28;20271;-81
2021/12/20 07:36:06;;;;;;;26.83;15.05;;;3.70;92.60;;;;;;5029035;28;20204;-81
2021/12/20 07:38:34;;;;;;;27.40;15.65;;;3.70;92.10;;;;;;5027617;28;20227;-81
2021/12/20 07:41:02;;;;;;;28.73;15.88;;;3.60;92.00;;;;;;5034596;28;20219;-83
2021/12/20 07:43:30;;;;;;;28.73;15.15;;;3.60;92.00;;;;;;5038629;28;20204;-83
2021/12/20 07:45:58;;;;;;;25.15;14.95;;;3.60;92.00;;;;;;5038444;28;20235;-85
2021/12/20 07:48:25;;;;;;;26.00;14.93;;;3.60;92.00;;;;;;5038578;28;20188;-80
2021/12/20 07:50:52;;;;;;;28.40;14.70;;;3.60;91.90;;;;;;5037171;28;20199;-80
2021/12/20 07:53:19;;;;;;;29.05;15.55;;;3.60;92.00;;;;;;5036426;28;20235;-82
2021/12/20 07:55:47;;;;;;;22.25;13.40;;;3.70;92.10;;;;;;5037298;28;20280;-82
2021/12/20 07:58:14;;;;;;;24.83;14.90;;;3.70;91.30;;;;;;5037317;28;20270;-82
2021/12/20 08:00:43;;;;;;;25.17;14.93;;;3.80;91.10;;;;;;5033558;28;20208;-81
2021/12/20 08:03:10;;;;;;;28.90;16.60;;;3.70;91.10;;;;;;5032980;28;20215;-81
2021/12/20 08:05:37;;;;;;;26.50;15.10;;;3.80;91.10;;;;;;5035293;28;20256;-80
2021/12/20 08:08:05;;;;;;;25.90;14.27;;;3.90;91.20;;;;;;5034425;28;20235;-80
2021/12/20 08:10:32;;;;;;;30.58;15.75;;;4.00;90.60;;;;;;5035563;28;20223;-81
2021/12/20 08:12:59;;;;;;;27.05;14.65;;;4.00;90.00;;;;;;5037011;28;20210;-81
2021/12/20 08:15:27;;;;;;;28.42;16.35;;;4.00;88.80;;;;;;5036906;28;20195;-80
2021/12/20 08:17:57;;;;;;;23.88;13.75;;;4.00;88.20;;;;;;5037112;28;20224;-81
2021/12/20 08:20:24;;;;;;;28.67;14.38;;;3.90;88.30;;;;;;5038084;28;20203;-81
2021/12/20 08:22:52;;;;;;;27.27;15.63;;;4.00;88.90;;;;;;5036316;28;20192;-82
2021/12/20 08:25:20;;;;;;;31.27;14.50;;;4.00;88.80;;;;;;5037205;28;20231;-82
2021/12/20 08:27:50;;;;;;;25.48;14.55;;;4.10;89.10;;;;;;5037131;28;20254;-81
2021/12/20 08:30:18;;;;;;;31.15;16.65;;;4.10;88.00;;;;;;5038179;28;20192;-80
2021/12/20 08:32:45;;;;;;;29.33;15.80;;;4.10;88.70;;;;;;5037723;28;20215;-84
2021/12/20 08:35:15;;;;;;;26.30;14.52;;;4.20;87.60;;;;;;5038235;28;20207;-83
2021/12/20 08:37:42;;;;;;;31.77;15.77;;;4.20;87.10;;;;;;5034309;28;20315;-80
2021/12/20 08:40:13;;;;;;;26.60;15.45;;;4.30;86.70;;;;;;5025480;28;20212;-82
2021/12/20 08:42:41;;;;;;;29.27;15.88;;;4.20;85.20;;;;;;5027161;28;20271;-81
2021/12/20 08:45:10;;;;;;;29.38;15.15;;;4.20;86.00;;;;;;5032717;28;20267;-80
2021/12/20 08:47:37;;;;;;;31.70;16.23;;;4.30;86.10;;;;;;5032153;28;20224;-80
2021/12/20 08:50:07;;;;;;;26.15;14.20;;;4.30;85.20;;;;;;5030249;28;20215;-81
2021/12/20 08:52:35;;;;;;;27.02;14.90;;;4.20;85.00;;;;;;5026583;28;20257;-83
2021/12/20 08:55:02;;;;;;;24.95;14.77;;;4.20;85.50;;;;;;5030907;28;20223;-81
2021/12/20 08:57:29;;;;;;;32.80;15.75;;;4.30;85.00;;;;;;5027211;28;20220;-81
2021/12/20 08:59:56;;;;;;;25.42;16.00;;;4.40;85.10;;;;;;5031659;28;20298;-82
2021/12/20 09:02:27;;;;;;;30.38;15.40;;;4.50;84.00;;;;;;5031027;28;20275;-81
2021/12/20 09:04:54;;;;;;;23.67;13.75;;;4.50;82.90;;;;;;5030591;28;20235;-83
2021/12/20 09:07:21;;;;;;;30.52;15.85;;;4.60;82.60;;;;;;5030148;28;20219;-81
2021/12/20 09:09:50;;;;;;;24.88;14.27;;;4.60;81.30;;;;;;5030535;28;20219;-81
2021/12/20 09:12:18;;;;;;;27.77;14.80;;;4.70;81.20;;;;;;5026690;28;20212;-80
2021/12/20 09:14:46;;;;;;;24.65;15.25;;;4.70;81.20;;;;;;5026285;28;20223;-80
2021/12/20 09:17:13;;;;;;;26.92;15.90;;;4.80;81.10;;;;;;5033174;28;20266;-82
2021/12/20 09:19:40;;;;;;;23.55;14.82;;;4.80;80.00;;;;;;5032294;28;20631;-82
2021/12/20 09:22:11;;;;;;;29.50;16.10;;;4.90;80.40;;;;;;5027555;28;20553;-81
2021/12/20 09:24:38;;;;;;;25.42;15.65;;;4.90;78.50;;;;;;5036264;28;20200;-79
2021/12/20 09:27:08;;;;;;;24.75;14.30;;;5.00;79.10;;;;;;5036757;28;20223;-80
2021/12/20 09:29:35;;;;;;;27.20;16.65;;;5.10;78.80;;;;;;5035604;28;20254;-81
2021/12/20 09:32:02;;;;;;;28.35;16.52;;;5.20;78.20;;;;;;5034755;28;20211;-82
2021/12/20 09:34:30;;;;;;;26.15;15.57;;;5.20;76.50;;;;;;5034694;28;20229;-80
2021/12/20 09:37:04;;;;;;;27.05;15.77;;;5.30;76.20;;;;;;5034576;28;20235;-83
2021/12/20 09:39:33;;;;;;;28.05;15.13;;;5.40;75.60;;;;;;5033307;28;20207;-80
2021/12/20 09:42:03;;;;;;;24.83;15.18;;;5.40;74.70;;;;;;5031741;28;20208;-81
2021/12/20 09:44:33;;;;;;;27.88;15.95;;;5.50;73.40;;;;;;5034639;28;20214;-78
2021/12/20 09:47:03;;;;;;;25.77;15.32;;;5.40;73.30;;;;;;5035843;28;20212;-81
2021/12/20 09:49:33;;;;;;;26.10;15.27;;;5.50;73.40;;;;;;5033849;28;20215;-81
2021/12/20 09:52:00;;;;;;;24.55;15.30;;;5.30;73.30;;;;;;5033211;28;20207;-83
2021/12/20 09:54:29;;;;;;;27.27;15.35;;;5.20;73.20;;;;;;5035061;28;20199;-80
2021/12/20 09:56:59;;;;;;;24.88;14.73;;;5.30;75.00;;;;;;5035185;28;20287;-81
2021/12/20 09:59:28;;;;;;;27.90;16.58;;;5.50;74.30;;;;;;5034567;28;20188;-82
2021/12/20 10:01:58;;;;;;;22.92;14.07;;;5.60;73.50;;;;;;5033922;28;20208;-82
2021/12/20 10:04:25;;;;;;;25.58;14.55;;;5.60;73.50;;;;;;5033937;28;20202;-80
2021/12/20 10:06:54;;;;;;;23.30;14.00;;;5.80;73.70;;;;;;5033851;28;20254;-81
2021/12/20 10:09:26;;;;;;;27.77;15.10;;;5.80;72.80;;;;;;5025594;28;20215;-81
2021/12/20 10:12:22;;;;;;;26.77;15.52;;;5.60;71.90;;;;;;5023428;28;20212;-80
2021/12/20 10:15:02;;;;;;;24.17;15.07;;;5.50;73.40;;;;;;5018235;28;20262;-81
2021/12/20 10:17:35;;;;;;;25.65;14.98;;;5.80;73.40;;;;;;5021865;28;20235;-82
2021/12/20 10:20:15;;;;;;;28.13;16.20;;;5.90;71.80;;;;;;5022433;28;20226;-81
2021/12/20 10:22:45;;;;;;;24.63;14.25;;;5.90;70.50;;;;;;5027040;28;20271;-80
2021/12/20 10:25:27;;;;;;;29.65;16.73;;;6.00;70.50;;;;;;5025181;28;20251;-81
2021/12/20 10:28:03;;;;;;;26.58;14.82;;;6.20;69.80;;;;;;5024994;28;20314;-80
2021/12/20 10:30:32;;;;;;;26.33;14.85;;;6.20;69.70;;;;;;5022606;28;20230;-80
2021/12/20 10:33:04;;;;;;;27.65;16.08;;;6.20;69.30;;;;;;5030590;28;20211;-82
2021/12/20 10:35:35;;;;;;;26.60;15.20;;;6.30;68.50;;;;;;5032402;28;20208;-80
2021/12/20 10:38:05;;;;;;;25.40;14.98;;;6.30;68.30;;;;;;5035448;28;20238;-85
2021/12/20 10:40:34;;;;;;;27.25;15.48;;;6.30;68.50;;;;;;5031397;28;20204;-81
2021/12/20 10:43:08;;;;;;;30.25;15.77;;;6.40;68.00;;;;;;5035628;28;20196;-81
2021/12/20 10:45:35;;;;;;;25.20;15.85;;;6.40;68.20;;;;;;5034966;28;20273;-80
2021/12/20 10:48:13;;;;;;;29.10;17.00;;;6.30;67.90;;;;;;5034966;28;20226;-82
2021/12/20 10:50:43;;;;;;;27.60;16.08;;;5.70;69.60;;;;;;5033732;28;20207;-82
2021/12/20 10:53:22;;;;;;;26.02;16.35;;;5.30;73.30;;;;;;5025704;28;20690;-81
2021/12/20 10:55:52;;;;;;;29.80;16.20;;;5.60;74.60;;;;;;5022074;28;20227;-82
2021/12/20 10:58:40;;;;;;;28.67;15.95;;;5.80;72.70;;;;;;5022564;28;20212;-81
2021/12/20 11:01:37;;;;;;;27.35;15.77;;;5.70;73.00;;;;;;5019770;28;20266;-79
2021/12/20 11:04:08;;;;;;;28.77;16.42;;;5.20;76.30;;;;;;5025180;28;20290;-80
2021/12/20 11:09:23;;;;;;;28.40;15.32;;;5.30;80.20;;;;;;5027057;28;20629;-81
2021/12/20 11:11:52;;;;;;;31.42;17.33;;;5.40;78.90;;;;;;5031156;28;20215;-80
2021/12/20 11:14:22;;;;;;;34.13;15.27;;;5.30;78.30;;;;;;5030198;28;20239;-83
2021/12/20 11:16:51;;;;;;;30.88;16.02;;;5.50;78.10;;;;;;5021847;28;20256;-81
2021/12/20 11:19:25;;;;;;;28.77;16.40;;;5.60;77.30;;;;;;5023928;28;20212;-82
2021/12/20 11:21:59;;;;;;;25.40;14.75;;;5.70;76.10;;;;;;5026412;28;20627;-82
2021/12/20 11:24:29;;;;;;;26.77;16.08;;;5.70;76.10;;;;;;5027036;28;20298;-81
2021/12/20 11:26:58;;;;;;;23.50;14.18;;;5.80;76.30;;;;;;5024784;28;20263;-81
2021/12/20 11:29:26;;;;;;;26.38;14.70;;;5.70;75.40;;;;;;5023490;28;20275;-82
2021/12/20 11:31:57;;;;;;;24.05;13.95;;;5.70;76.20;;;;;;5020073;28;20204;-81
2021/12/20 11:34:26;;;;;;;28.70;16.02;;;5.70;75.60;;;;;;5022935;28;20211;-82
2021/12/20 11:36:54;;;;;;;32.95;16.63;;;5.50;77.10;;;;;;5026621;28;20247;-81
2021/12/20 11:39:21;;;;;;;30.85;15.38;;;5.70;77.50;;;;;;5033600;28;20347;-81
2021/12/20 11:41:48;;;;;;;29.13;15.52;;;5.90;75.10;;;;;;5028417;28;20307;-81
2021/12/20 11:44:19;;;;;;;27.90;15.30;;;5.90;75.10;;;;;;5025629;28;20200;-81
2021/12/20 11:47:18;;;;;;;27.33;15.18;;;5.80;74.50;;;;;;5027251;28;20247;-81
2021/12/20 11:49:55;;;;;;;28.08;13.48;;;5.80;75.50;;;;;;5007689;28;20230;-80
2021/12/20 11:52:22;;;;;;;27.42;15.73;;;6.00;73.90;;;;;;5027475;28;20211;-80
2021/12/20 11:54:51;;;;;;;31.70;16.05;;;6.00;73.90;;;;;;5034850;28;20228;-81
2021/12/20 11:57:39;;;;;;;26.63;16.08;;;6.00;73.90;;;;;;5032432;28;20286;-83
2021/12/20 12:00:19;;;;;;;26.80;14.63;;;6.20;74.00;;;;;;5032543;28;20196;-81
2021/12/20 12:02:47;;;;;;;27.88;16.27;;;6.20;74.00;;;;;;5033749;28;20218;-82
2021/12/20 12:05:18;;;;;;;27.13;15.90;;;6.10;73.90;;;;;;5031187;28;20318;-80
2021/12/20 12:07:46;;;;;;;27.90;16.10;;;6.10;73.90;;;;;;5022666;28;20239;-82
2021/12/20 12:10:15;;;;;;;22.55;14.05;;;6.10;73.90;;;;;;5025938;28;20265;-79
2021/12/20 12:12:44;;;;;;;28.00;14.48;;;6.00;73.90;;;;;;5028005;28;20218;-82
2021/12/20 12:15:16;;;;;;;27.25;15.45;;;5.70;74.70;;;;;;5026613;28;20212;-80
2021/12/20 12:17:57;;;;;;;26.30;14.60;;;5.70;75.00;;;;;;5061113;22;20321;-79
2021/12/20 12:20:49;;;;;;;26.88;14.20;;;5.70;74.50;;;;;;5051110;28;20277;-80
2021/12/20 12:23:23;;;;;;;30.05;14.15;;;5.60;75.00;;;;;;5055684;28;20211;-79
2021/12/20 12:25:53;;;;;;;28.63;15.00;;;5.50;76.60;;;;;;5048780;28;20227;-79
2021/12/20 12:28:22;;;;;;;27.90;13.32;;;5.40;76.10;;;;;;5029409;28;20228;-81
2021/12/20 12:31:08;;;;;;;22.00;13.00;;;5.40;76.30;;;;;;5029399;28;20208;-78
2021/12/20 12:33:41;;;;;;;22.90;13.00;;;5.50;74.80;;;;;;5026818;28;20220;-81
2021/12/20 12:36:24;;;;;;;20.67;12.68;;;5.50;73.40;;;;;;5028597;28;20187;-80
2021/12/20 12:38:58;;;;;;;21.65;12.13;;;5.60;73.50;;;;;;5029122;28;20226;-80
2021/12/20 12:41:27;;;;;;;18.92;11.23;;;5.70;73.60;;;;;;5028073;28;20239;-79
2021/12/20 12:44:06;;;;;;;20.38;11.60;;;5.80;72.20;;;;;;5031779;28;20212;-80
2021/12/20 12:47:04;;;;;;;19.40;11.07;;;5.90;71.10;;;;;;5033536;28;20239;-81
2021/12/20 12:49:39;;;;;;;16.40;11.25;;;6.00;67.80;;;;;;5001609;28;20218;-80
2021/12/20 12:52:11;;;;;;;17.60;9.85;;;5.90;65.70;;;;;;5035936;28;20211;-80
2021/12/20 12:54:44;;;;;;;16.52;10.27;;;5.80;66.00;;;;;;5035976;28;20239;-79
2021/12/20 12:57:29;;;;;;;18.30;9.98;;;5.80;65.60;;;;;;5038362;28;20227;-79
2021/12/20 13:05:29;;;;;;;16.85;9.65;;;5.70;65.80;;;;;;5028358;28;20215;-79
2021/12/20 13:08:01;;;;;;;16.27;9.32;;;5.50;64.80;;;;;;5012735;28;20254;-80
2021/12/20 13:10:33;;;;;;;16.15;10.43;;;5.50;65.50;;;;;;5003307;28;20199;-79
2021/12/20 13:13:05;;;;;;;16.67;10.38;;;5.40;65.40;;;;;;5002954;28;20207;-78
2021/12/20 13:15:38;;;;;;;14.55;9.65;;;5.50;65.40;;;;;;5005082;28;20244;-80
2021/12/20 13:18:09;;;;;;;16.83;9.90;;;5.50;65.60;;;;;;5060848;23;20260;-80